createdAt,value
2019-02-04T00:00:14.888Z,143.20
2019-02-04T00:02:48.524Z,164.80
2019-02-04T00:05:20.241Z,162.60
2019-02-04T00:07:51.628Z,166.40
2019-02-04T00:10:23.062Z,156.00
2019-02-04T00:12:54.478Z,171.40
2019-02-04T00:15:25.974Z,165.60
2019-02-04T00:17:57.738Z,150.20
2019-02-04T00:20:29.163Z,168.60
2019-02-04T00:23:00.476Z,155.00
2019-02-04T00:25:31.976Z,146.80
2019-02-04T00:28:04.129Z,166.40
2019-02-04T00:30:35.578Z,163.00
2019-02-04T00:33:07.940Z,145.60
2019-02-04T00:35:39.465Z,159.60
2019-02-04T00:38:11.684Z,150.00
2019-02-04T00:40:45.308Z,140.80
2019-02-04T00:43:16.791Z,172.80
2019-02-04T00:45:48.476Z,148.40
2019-02-04T00:48:19.723Z,150.80
2019-02-04T00:50:51.176Z,149.60
2019-02-04T00:53:22.544Z,167.20
2019-02-04T00:55:54.016Z,166.60
2019-02-04T00:58:25.456Z,144.20
2019-02-04T01:00:56.787Z,162.60
2019-02-04T01:03:28.371Z,147.00
2019-02-04T01:05:59.976Z,151.00
2019-02-04T01:08:31.493Z,163.40
2019-02-04T01:11:03.201Z,142.20
2019-02-04T01:13:34.567Z,133.40
2019-02-04T01:16:06.526Z,127.20
2019-02-04T01:18:37.861Z,137.60
2019-02-04T01:21:09.366Z,153.80
2019-02-04T01:23:40.868Z,138.60
2019-02-04T01:26:12.106Z,149.40
2019-02-04T01:28:43.505Z,123.20
2019-02-04T01:31:15.043Z,142.40
2019-02-04T01:33:46.310Z,147.00
2019-02-04T01:36:17.656Z,159.00
2019-02-04T01:38:49.085Z,149.00
2019-02-04T01:41:20.719Z,137.20
2019-02-04T01:43:53.361Z,150.60
2019-02-04T01:46:24.796Z,139.00
2019-02-04T01:48:56.321Z,133.80
2019-02-04T01:51:27.606Z,143.00
2019-02-04T01:53:59.034Z,168.80
2019-02-04T01:56:30.592Z,153.40
2019-02-04T01:59:02.290Z,150.40
2019-02-04T02:01:33.273Z,137.00
2019-02-04T02:04:05.334Z,147.00
2019-02-04T02:06:36.954Z,159.00
2019-02-04T02:09:22.244Z,132.00
2019-02-04T02:11:53.733Z,158.60
2019-02-04T02:14:26.362Z,159.20
2019-02-04T02:16:58.038Z,165.80
2019-02-04T02:19:29.673Z,177.80
2019-02-04T02:22:01.417Z,185.00
2019-02-04T02:24:33.176Z,175.75
2019-02-04T02:27:05.300Z,201.50
2019-02-04T02:29:36.473Z,193.25
2019-02-04T02:32:08.230Z,189.75
2019-02-04T02:34:40.086Z,192.00
2019-02-04T02:37:11.838Z,168.50
2019-02-04T02:39:43.118Z,186.25
2019-02-04T02:42:14.832Z,177.50
2019-02-04T02:44:46.255Z,186.75
2019-02-04T02:47:17.927Z,195.80
2019-02-04T02:49:49.694Z,172.60
2019-02-04T02:52:21.648Z,173.00
2019-02-04T02:54:53.293Z,175.20
2019-02-04T02:57:24.977Z,192.40
2019-02-04T02:59:56.633Z,165.00
2019-02-04T03:02:28.351Z,180.40
2019-02-04T03:04:59.885Z,173.25
2019-02-04T03:07:31.770Z,185.80
2019-02-04T03:10:03.274Z,206.00
2019-02-04T03:12:35.278Z,228.50
2019-02-04T03:15:07.747Z,254.25
2019-02-04T03:17:50.518Z,290.25
2019-02-04T03:20:12.627Z,272.75
2019-02-04T03:22:44.944Z,234.75
2019-02-04T03:25:16.575Z,209.75
2019-02-04T03:27:48.388Z,208.75
2019-02-04T03:30:31.460Z,210.75
2019-02-04T03:33:03.469Z,209.00
2019-02-04T03:35:34.930Z,189.00
2019-02-04T03:38:06.398Z,192.00
2019-02-04T03:40:37.458Z,183.75
2019-02-04T03:43:08.826Z,215.50
2019-02-04T03:45:40.080Z,236.25
2019-02-04T03:48:11.927Z,194.50
2019-02-04T03:50:43.627Z,190.00
2019-02-04T03:53:16.130Z,199.50
2019-02-04T03:55:47.590Z,186.75
2019-02-04T03:58:19.150Z,195.50
2019-02-04T04:00:50.412Z,196.75
2019-02-04T04:03:22.283Z,198.25
2019-02-04T04:05:53.782Z,185.75
2019-02-04T04:08:25.700Z,191.00
2019-02-04T04:10:57.244Z,198.25
2019-02-04T04:13:29.105Z,217.50
2019-02-04T04:16:00.577Z,242.50
2019-02-04T04:18:32.184Z,247.25
2019-02-04T04:21:03.554Z,291.00
2019-02-04T04:23:34.973Z,265.25
2019-02-04T04:26:07.037Z,331.50
2019-02-04T04:28:38.469Z,266.25
2019-02-04T04:31:09.775Z,291.25
2019-02-04T04:33:41.884Z,313.50
2019-02-04T04:36:13.211Z,309.50
2019-02-04T04:38:44.773Z,320.00
2019-02-04T04:41:16.331Z,313.25
2019-02-04T04:43:47.802Z,329.50
2019-02-04T04:46:19.179Z,318.50
2019-02-04T04:48:50.969Z,306.00
2019-02-04T04:51:22.429Z,333.50
2019-02-04T04:53:53.766Z,377.25
2019-02-04T04:56:25.677Z,375.75
2019-02-04T04:58:57.076Z,367.00
2019-02-04T05:01:28.885Z,371.00
2019-02-04T05:04:00.661Z,396.50
2019-02-04T05:06:32.213Z,355.25
2019-02-04T05:09:05.838Z,376.50
2019-02-04T05:11:37.457Z,337.50
2019-02-04T05:14:09.145Z,368.25
2019-02-04T05:16:41.892Z,349.00
2019-02-04T05:19:13.561Z,357.25
2019-02-04T05:21:45.135Z,377.50
2019-02-04T05:24:16.555Z,362.75
2019-02-04T05:26:48.183Z,355.75
2019-02-04T05:29:19.835Z,346.25
2019-02-04T05:31:53.162Z,363.25
2019-02-04T05:34:24.912Z,363.00
2019-02-04T05:36:56.436Z,335.25
2019-02-04T05:39:27.992Z,357.25
2019-02-04T05:41:59.303Z,350.50
2019-02-04T05:44:30.829Z,307.00
2019-02-04T05:47:02.166Z,304.25
2019-02-04T05:49:39.760Z,277.00
2019-02-04T05:52:11.292Z,273.75
2019-02-04T05:54:42.466Z,303.00
2019-02-04T05:57:14.189Z,291.50
2019-02-04T05:59:45.526Z,288.25
2019-02-04T06:02:17.077Z,299.50
2019-02-04T06:04:48.881Z,284.25
2019-02-04T06:07:20.051Z,289.00
2019-02-04T06:09:51.339Z,270.75
2019-02-04T06:12:22.567Z,257.00
2019-02-04T06:14:54.071Z,259.75
2019-02-04T06:17:25.171Z,250.50
2019-02-04T06:19:56.660Z,197.25
2019-02-04T06:22:28.313Z,213.50
2019-02-04T06:24:59.985Z,217.25
2019-02-04T06:27:31.834Z,191.00
2019-02-04T06:30:03.556Z,207.20
2019-02-04T06:32:34.845Z,212.00
2019-02-04T06:35:07.017Z,253.75
2019-02-04T06:37:38.346Z,265.00
2019-02-04T06:40:11.599Z,317.25
2019-02-04T06:42:43.276Z,332.75
2019-02-04T06:45:15.749Z,310.00
2019-02-04T06:47:47.098Z,267.00
2019-02-04T06:50:18.817Z,233.75
2019-02-04T06:52:50.222Z,248.75
2019-02-04T06:55:30.323Z,187.80
2019-02-04T06:58:01.895Z,220.00
2019-02-04T07:00:33.198Z,214.25
2019-02-04T07:03:04.977Z,215.25
2019-02-04T07:05:43.960Z,197.25
2019-02-04T07:08:10.409Z,217.50
2019-02-04T07:10:41.778Z,196.75
2019-02-04T07:13:13.067Z,229.00
2019-02-04T07:15:44.469Z,179.60
2019-02-04T07:18:16.016Z,180.20
2019-02-04T07:20:47.324Z,228.00
2019-02-04T07:23:18.705Z,227.50
2019-02-04T07:25:50.840Z,188.40
2019-02-04T07:28:22.377Z,219.20
2019-02-04T07:30:54.050Z,179.00
2019-02-04T07:33:25.638Z,179.00
2019-02-04T07:35:56.894Z,187.00
2019-02-04T07:38:28.194Z,177.60
2019-02-04T07:41:00.062Z,174.00
2019-02-04T07:43:31.777Z,186.20
2019-02-04T07:46:03.204Z,185.20
2019-02-04T07:48:34.653Z,167.60
2019-02-04T07:51:06.064Z,171.00
2019-02-04T07:53:37.921Z,196.00
2019-02-04T07:56:09.331Z,187.00
2019-02-04T07:58:40.800Z,183.20
2019-02-04T08:01:12.013Z,154.80
2019-02-04T08:03:43.618Z,173.60
2019-02-04T08:06:15.138Z,173.40
2019-02-04T08:08:46.400Z,186.20
2019-02-04T08:11:17.607Z,171.80
2019-02-04T08:13:48.602Z,185.00
2019-02-04T08:16:19.717Z,182.00
2019-02-04T08:18:51.195Z,196.60
2019-02-04T08:21:22.951Z,173.40
2019-02-04T08:23:54.471Z,217.40
2019-02-04T08:26:25.616Z,232.50
2019-02-04T08:28:57.210Z,274.00
2019-02-04T08:31:29.074Z,188.00
2019-02-04T08:34:01.126Z,221.75
2019-02-04T08:36:43.109Z,328.50
2019-02-04T08:39:08.514Z,225.75
2019-02-04T08:41:40.016Z,347.50
2019-02-04T08:44:11.452Z,222.00
2019-02-04T08:46:42.740Z,212.80
2019-02-04T08:49:15.129Z,222.75
2019-02-04T08:51:46.363Z,219.00
2019-02-04T08:54:17.862Z,261.25
2019-02-04T08:56:49.588Z,230.00
2019-02-04T08:59:21.112Z,274.25
2019-02-04T09:01:52.658Z,261.00
2019-02-04T09:04:24.155Z,270.25
2019-02-04T09:06:55.392Z,254.00
2019-02-04T09:09:26.993Z,235.75
2019-02-04T09:11:58.716Z,194.25
2019-02-04T09:14:30.344Z,220.75
2019-02-04T09:17:01.712Z,177.00
2019-02-04T09:19:33.167Z,171.20
2019-02-04T09:22:05.287Z,159.60
2019-02-04T09:24:36.714Z,151.60
2019-02-04T09:27:08.513Z,173.80
2019-02-04T09:29:39.941Z,166.40
2019-02-04T09:32:11.967Z,170.20
2019-02-04T09:34:43.679Z,177.20
2019-02-04T09:37:15.369Z,141.40
2019-02-04T09:39:46.618Z,150.80
2019-02-04T09:42:18.726Z,124.20
2019-02-04T09:44:50.285Z,134.40
2019-02-04T09:47:21.818Z,117.60
2019-02-04T09:49:53.096Z,123.60
2019-02-04T09:52:24.278Z,114.80
2019-02-04T09:54:55.376Z,119.00
2019-02-04T09:57:26.990Z,124.40
2019-02-04T09:59:58.405Z,103.80
2019-02-04T10:02:29.877Z,124.60
2019-02-04T10:05:01.654Z,111.60
2019-02-04T10:07:32.922Z,117.00
2019-02-04T10:10:05.200Z,124.20
2019-02-04T10:12:36.848Z,108.00
2019-02-04T10:15:11.030Z,103.20
2019-02-04T10:17:42.384Z,106.60
2019-02-04T10:20:14.967Z,103.80
2019-02-04T10:22:46.985Z,116.40
2019-02-04T10:25:21.059Z,105.00
2019-02-04T10:27:52.878Z,102.80
2019-02-04T10:30:24.663Z,116.80
2019-02-04T10:32:57.317Z,123.00
2019-02-04T10:35:29.661Z,133.80
2019-02-04T10:38:00.823Z,134.00
2019-02-04T10:40:32.711Z,143.20
2019-02-04T10:43:04.145Z,152.40
2019-02-04T10:45:35.487Z,152.00
2019-02-04T10:48:07.061Z,145.40
2019-02-04T10:50:46.388Z,133.40
2019-02-04T10:53:13.757Z,144.20
2019-02-04T10:55:45.799Z,135.60
2019-02-04T10:58:17.144Z,146.60
2019-02-04T11:00:48.932Z,119.20
2019-02-04T11:03:20.234Z,133.80
2019-02-04T11:05:53.244Z,144.20
2019-02-04T11:08:24.973Z,139.40
2019-02-04T11:10:56.472Z,125.20
2019-02-04T11:13:28.908Z,121.40
2019-02-04T11:16:00.583Z,120.20
2019-02-04T11:18:32.112Z,126.00
2019-02-04T11:21:04.624Z,132.80
2019-02-04T11:23:36.498Z,113.40
2019-02-04T11:26:09.223Z,118.80
2019-02-04T11:28:41.001Z,121.00
2019-02-04T11:31:13.562Z,111.80
2019-02-04T11:33:44.913Z,115.00
2019-02-04T11:36:16.698Z,113.60
2019-02-04T11:38:48.327Z,142.60
2019-02-04T11:41:54.743Z,118.00
2019-02-04T11:44:26.255Z,120.80
2019-02-04T11:46:57.757Z,128.40
2019-02-04T11:49:29.593Z,127.00
2019-02-04T11:52:01.457Z,121.40
2019-02-04T11:54:33.309Z,123.80
2019-02-04T11:57:04.940Z,119.60
2019-02-04T11:59:36.616Z,121.80
2019-02-04T12:02:08.653Z,132.60
2019-02-04T12:04:40.164Z,137.40
2019-02-04T12:07:11.900Z,150.40
2019-02-04T12:09:43.487Z,144.00
2019-02-04T12:12:15.092Z,134.80
2019-02-04T12:14:46.890Z,130.00
2019-02-04T12:17:18.255Z,119.20
2019-02-04T12:19:50.003Z,138.80
2019-02-04T12:22:22.077Z,143.20
2019-02-04T12:24:53.475Z,138.00
2019-02-04T12:27:31.961Z,139.40
2019-02-04T12:29:58.533Z,138.60
2019-02-04T12:32:30.310Z,125.20
2019-02-04T12:35:01.766Z,139.60
2019-02-04T12:37:33.605Z,144.00
2019-02-04T12:40:05.647Z,145.80
2019-02-04T12:42:37.552Z,155.60
2019-02-04T12:45:13.200Z,163.00
2019-02-04T12:47:44.601Z,167.40
2019-02-04T12:50:16.971Z,153.60
2019-02-04T12:52:49.404Z,180.20
2019-02-04T12:55:22.424Z,168.60
2019-02-04T12:57:54.021Z,180.40
2019-02-04T13:00:27.644Z,187.20
2019-02-04T13:02:59.260Z,183.00
2019-02-04T13:05:34.160Z,188.60
2019-02-04T13:08:07.337Z,192.00
2019-02-04T13:10:39.191Z,187.60
2019-02-04T13:13:12.972Z,203.50
2019-02-04T13:15:49.691Z,216.50
2019-02-04T13:18:21.769Z,203.50
2019-02-04T13:20:55.147Z,244.50
2019-02-04T13:23:26.686Z,292.25
2019-02-04T13:25:58.413Z,318.50
2019-02-04T13:28:30.460Z,338.75
2019-02-04T13:31:02.320Z,366.00
2019-02-04T13:33:33.636Z,346.75
2019-02-04T13:36:05.515Z,327.50
2019-02-04T13:38:38.137Z,327.00
2019-02-04T13:41:10.783Z,342.25
2019-02-04T13:43:43.020Z,310.25
2019-02-04T13:46:15.254Z,349.50
2019-02-04T13:48:46.558Z,320.50
2019-02-04T13:51:18.054Z,321.50
2019-02-04T13:53:49.645Z,310.00
2019-02-04T13:56:21.579Z,304.00
2019-02-04T13:58:53.153Z,284.50
2019-02-04T14:01:24.988Z,276.00
2019-02-04T14:03:56.412Z,268.00
2019-02-04T14:06:28.004Z,285.50
2019-02-04T14:08:59.581Z,261.50
2019-02-04T14:11:31.382Z,276.75
2019-02-04T14:14:03.029Z,267.50
2019-02-04T14:16:34.814Z,252.50
2019-02-04T14:19:09.753Z,263.00
2019-02-04T14:21:41.178Z,249.00
2019-02-04T14:24:13.345Z,232.00
2019-02-04T14:26:45.067Z,241.75
2019-02-04T14:29:17.106Z,246.00
2019-02-04T14:31:48.601Z,259.50
2019-02-04T14:34:20.317Z,253.50
2019-02-04T14:36:52.069Z,257.00
2019-02-04T14:39:23.242Z,276.00
2019-02-04T14:41:54.392Z,288.25
2019-02-04T14:44:42.849Z,270.00
2019-02-04T14:47:41.259Z,293.00
2019-02-04T14:50:51.354Z,286.00
2019-02-04T14:54:02.104Z,257.75
2019-02-04T14:57:03.220Z,316.75
2019-02-04T14:59:45.183Z,347.25
2019-02-04T15:02:43.013Z,368.25
2019-02-04T15:05:59.963Z,472.80
2019-02-04T15:08:56.933Z,483.60
2019-02-04T15:11:52.079Z,469.20
2019-02-04T15:15:12.926Z,561.40
2019-02-04T15:18:31.056Z,560.80
2019-02-04T15:21:37.439Z,596.00
2019-02-04T15:24:22.193Z,642.80
2019-02-04T15:27:21.046Z,733.67
2019-02-04T15:30:12.411Z,656.60
2019-02-04T15:33:26.007Z,665.60
2019-02-04T15:36:46.563Z,692.20
2019-02-04T15:39:40.437Z,692.80
2019-02-04T15:42:35.934Z,692.60
2019-02-04T15:45:38.478Z,692.40
2019-02-04T15:48:21.654Z,701.20
2019-02-04T15:51:23.965Z,723.00
2019-02-04T15:53:55.688Z,760.20
2019-02-04T15:56:26.908Z,760.00
2019-02-04T15:58:58.441Z,672.50
2019-02-04T16:01:30.067Z,714.00
2019-02-04T16:04:03.257Z,703.60
2019-02-04T16:06:36.087Z,711.00
2019-02-04T16:09:09.712Z,714.17
2019-02-04T16:11:41.425Z,654.80
2019-02-04T16:14:12.944Z,715.17
2019-02-04T16:16:44.446Z,695.20
2019-02-04T16:19:15.910Z,670.20
2019-02-04T16:21:47.355Z,680.80
2019-02-04T16:24:19.435Z,651.80
2019-02-04T16:26:51.705Z,657.80
2019-02-04T16:29:23.061Z,706.17
2019-02-04T16:31:54.621Z,814.83
2019-02-04T16:34:26.727Z,741.80
2019-02-04T16:36:58.259Z,674.00
2019-02-04T16:39:30.421Z,662.00
2019-02-04T16:42:02.234Z,649.60
2019-02-04T16:44:33.715Z,673.20
2019-02-04T16:47:05.591Z,646.40
2019-02-04T16:49:38.705Z,698.00
2019-02-04T16:52:10.748Z,645.00
2019-02-04T16:54:42.730Z,662.40
2019-02-04T16:57:14.073Z,656.20
2019-02-04T16:59:45.906Z,618.20
2019-02-04T17:02:17.694Z,643.00
2019-02-04T17:04:49.832Z,672.80
2019-02-04T17:07:21.896Z,681.00
2019-02-04T17:09:53.627Z,666.80
2019-02-04T17:12:25.477Z,662.60
2019-02-04T17:14:57.246Z,675.60
2019-02-04T17:17:28.998Z,680.60
2019-02-04T17:20:00.627Z,657.40
2019-02-04T17:22:32.083Z,679.60
2019-02-04T17:25:03.733Z,668.40
2019-02-04T17:27:35.322Z,660.80
2019-02-04T17:30:08.401Z,660.00
2019-02-04T17:32:40.612Z,642.50
2019-02-04T17:35:12.396Z,769.83
2019-02-04T17:37:44.001Z,739.80
2019-02-04T17:40:17.926Z,668.20
2019-02-04T17:42:49.764Z,664.83
2019-02-04T17:45:21.518Z,645.17
2019-02-04T17:47:55.062Z,670.00
2019-02-04T17:50:26.871Z,664.20
2019-02-04T17:52:58.514Z,670.60
2019-02-04T17:55:30.662Z,678.67
2019-02-04T17:58:02.475Z,671.00
2019-02-04T18:00:40.890Z,667.17
2019-02-04T18:03:13.690Z,658.20
2019-02-04T18:05:45.049Z,637.00
2019-02-04T18:08:16.678Z,658.00
2019-02-04T18:10:48.360Z,632.20
2019-02-04T18:13:19.876Z,654.20
2019-02-04T18:15:51.867Z,679.00
2019-02-04T18:18:23.714Z,661.20
2019-02-04T18:20:55.736Z,651.80
2019-02-04T18:23:27.420Z,631.50
2019-02-04T18:26:00.109Z,652.67
2019-02-04T18:28:31.537Z,677.00
2019-02-04T18:31:03.632Z,668.50
2019-02-04T18:33:35.353Z,608.80
2019-02-04T18:36:07.105Z,606.60
2019-02-04T18:38:38.701Z,618.80
2019-02-04T18:41:10.404Z,603.80
2019-02-04T18:43:41.811Z,642.40
2019-02-04T18:46:13.702Z,622.20
2019-02-04T18:48:46.817Z,611.80
2019-02-04T18:51:18.856Z,582.40
2019-02-04T18:53:57.356Z,625.20
2019-02-04T18:56:24.088Z,589.60
2019-02-04T18:58:55.589Z,568.80
2019-02-04T19:01:27.320Z,608.40
2019-02-04T19:03:59.112Z,591.60
2019-02-04T19:06:31.418Z,623.00
2019-02-04T19:09:03.521Z,559.20
2019-02-04T19:11:36.859Z,595.60
2019-02-04T19:14:08.575Z,566.40
2019-02-04T19:16:40.181Z,551.00
2019-02-04T19:19:20.171Z,626.40
2019-02-04T19:21:51.985Z,520.25
2019-02-04T19:24:23.479Z,578.00
2019-02-04T19:26:55.365Z,560.80
2019-02-04T19:29:27.101Z,614.50
2019-02-04T19:31:58.875Z,571.50
2019-02-04T19:34:30.723Z,592.20
2019-02-04T19:37:02.084Z,500.60
2019-02-04T19:39:33.377Z,589.20
2019-02-04T19:42:04.862Z,558.00
2019-02-04T19:44:36.205Z,582.20
2019-02-04T19:47:08.243Z,550.80
2019-02-04T19:49:39.587Z,582.20
2019-02-04T19:52:11.065Z,585.50
2019-02-04T19:54:42.585Z,570.80
2019-02-04T19:57:14.122Z,536.00
2019-02-04T19:59:46.159Z,560.80
2019-02-04T20:02:17.628Z,537.00
2019-02-04T20:04:49.284Z,545.00
2019-02-04T20:07:20.563Z,592.80
2019-02-04T20:09:52.098Z,548.00
2019-02-04T20:12:23.690Z,564.60
2019-02-04T20:14:56.278Z,572.40
2019-02-04T20:17:28.018Z,575.40
2019-02-04T20:19:59.280Z,566.80
2019-02-04T20:22:30.604Z,564.20
2019-02-04T20:25:02.174Z,589.80
2019-02-04T20:27:35.107Z,544.60
2019-02-04T20:30:09.373Z,567.00
2019-02-04T20:32:41.155Z,569.60
2019-02-04T20:35:13.302Z,582.25
2019-02-04T20:37:44.759Z,593.75
2019-02-04T20:40:17.836Z,567.40
2019-02-04T20:42:49.687Z,601.50
2019-02-04T20:45:22.053Z,556.75
2019-02-04T20:47:53.700Z,612.25
2019-02-04T20:50:27.273Z,526.60
2019-02-04T20:53:00.176Z,593.50
2019-02-04T20:55:31.707Z,589.75
2019-02-04T20:58:03.439Z,574.20
2019-02-04T21:00:38.078Z,548.00
2019-02-04T21:03:09.584Z,595.60
2019-02-04T21:05:41.173Z,599.00
2019-02-04T21:08:12.680Z,584.00
2019-02-04T21:10:44.092Z,596.50
2019-02-04T21:13:16.803Z,595.60
2019-02-04T21:15:48.459Z,606.75
2019-02-04T21:18:19.729Z,603.60
2019-02-04T21:20:51.363Z,620.60
2019-02-04T21:23:22.675Z,638.40
2019-02-04T21:25:54.449Z,614.40
2019-02-04T21:28:26.917Z,638.60
2019-02-04T21:30:58.250Z,635.40
2019-02-04T21:33:29.640Z,589.25
2019-02-04T21:36:01.084Z,565.50
2019-02-04T21:38:32.977Z,607.75
2019-02-04T21:41:04.672Z,611.50
2019-02-04T21:43:36.094Z,598.00
2019-02-04T21:46:07.710Z,550.20
2019-02-04T21:48:41.952Z,575.00
2019-02-04T21:51:13.625Z,602.80
2019-02-04T21:53:45.169Z,579.00
2019-02-04T21:56:17.263Z,617.50
2019-02-04T21:58:48.730Z,567.50
2019-02-04T22:01:20.680Z,570.80
2019-02-04T22:03:52.829Z,590.80
2019-02-04T22:06:24.500Z,561.00
2019-02-04T22:08:56.468Z,596.40
2019-02-04T22:11:28.673Z,539.00
2019-02-04T22:14:00.511Z,546.40
2019-02-04T22:16:32.395Z,520.00
2019-02-04T22:19:04.456Z,551.40
2019-02-04T22:21:35.919Z,476.00
2019-02-04T22:24:07.732Z,466.00
2019-02-04T22:26:39.545Z,484.50
2019-02-04T22:29:11.695Z,529.25
2019-02-04T22:31:43.354Z,507.00
2019-02-04T22:34:15.293Z,480.75
2019-02-04T22:36:47.071Z,526.75
2019-02-04T22:39:18.782Z,551.75
2019-02-04T22:41:50.590Z,524.75
2019-02-04T22:44:21.951Z,511.75
2019-02-04T22:46:53.868Z,525.50
2019-02-04T22:49:25.253Z,529.00
2019-02-04T22:51:56.830Z,548.00
2019-02-04T22:54:28.616Z,481.00
2019-02-04T22:57:01.151Z,480.50
2019-02-04T22:59:32.859Z,512.50
2019-02-04T23:02:05.081Z,502.50
2019-02-04T23:04:36.882Z,500.00
2019-02-04T23:07:08.830Z,489.00
2019-02-04T23:09:40.703Z,462.00
2019-02-04T23:12:12.433Z,493.00
2019-02-04T23:14:44.053Z,473.75
2019-02-04T23:17:15.676Z,523.50
2019-02-04T23:19:47.423Z,484.25
2019-02-04T23:22:18.936Z,457.50
2019-02-04T23:24:50.335Z,494.00
2019-02-04T23:27:22.799Z,481.25
2019-02-04T23:29:54.232Z,475.50
2019-02-04T23:32:26.045Z,473.00
2019-02-04T23:34:57.504Z,470.00
2019-02-04T23:37:29.180Z,418.00
2019-02-04T23:40:01.367Z,470.75
2019-02-04T23:42:34.116Z,422.00
2019-02-04T23:45:05.903Z,404.25
2019-02-04T23:47:37.597Z,458.00
2019-02-04T23:50:12.167Z,422.25
2019-02-04T23:52:44.295Z,471.00
2019-02-04T23:55:15.991Z,463.75
2019-02-04T23:57:48.005Z,448.25
